Time;durP1;ratioP1;P1;durP2;ratioP2;P2;SDS_P1;SDS_P2;PMS_P1;PMS_P2;Temp;Humidity;BMP_temperature;BMP_pressure;BME280_temperature;BME280_humidity;BME280_pressure;Samples;Min_cycle;Max_cycle;Signal;HPM_P1;HPM_P2
2022/08/12 00:43:15;;;;;;;4.45;3.83;;;;;;;19.32;63.65;93559.81;5045234;28;20567;-56
2022/08/12 00:48:26;;;;;;;5.85;4.00;;;;;;;19.36;63.67;93556.59;5049892;28;20032;-56
2022/08/12 00:50:54;;;;;;;3.85;3.53;;;;;;;19.34;64.04;93557.16;5049901;28;20410;-59
2022/08/12 00:53:20;;;;;;;3.90;3.60;;;;;;;19.41;63.69;93556.22;5049923;28;20025;-61
2022/08/12 00:55:46;;;;;;;7.82;4.10;;;;;;;19.44;63.76;93554.28;5049999;28;20025;-61
2022/08/12 00:58:16;;;;;;;9.10;3.67;;;;;;;19.48;63.36;93551.75;5049706;28;20021;-61
2022/08/12 01:00:42;;;;;;;4.43;4.03;;;;;;;19.50;63.04;93558.19;5049973;28;20025;-60
2022/08/12 01:03:09;;;;;;;4.22;3.83;;;;;;;19.36;63.35;93534.19;5031793;28;20024;-60
2022/08/12 01:11:27;;;;;;;4.20;3.90;;;;;;;19.48;63.73;93557.34;5049764;28;20036;-57
2022/08/12 01:11:28;;;;;;;5.53;3.88;;;;;;;19.49;64.07;93558.81;5049434;28;20116;-58
2022/08/12 01:13:55;;;;;;;3.60;3.30;;;;;;;19.45;64.18;93558.53;5049609;28;20567;-58
2022/08/12 01:16:21;;;;;;;3.95;3.63;;;;;;;19.31;65.12;93552.03;5049917;28;20106;-57
2022/08/12 01:18:48;;;;;;;3.45;3.15;;;;;;;19.33;64.95;93552.91;5053405;28;20472;-58
2022/08/12 01:21:50;;;;;;;4.40;4.00;;;;;;;19.35;64.98;93560.72;5053552;28;20032;-58
2022/08/12 01:24:43;;;;;;;4.65;3.42;;;;;;;19.34;64.96;93557.16;5035787;28;20024;-58
2022/08/12 01:27:09;;;;;;;4.35;3.95;;;;;;;19.33;64.92;93552.16;5053037;28;20028;-58
2022/08/12 01:29:40;;;;;;;4.25;3.83;;;;;;;19.29;65.31;93552.66;5053404;28;20040;-58
2022/08/12 01:32:07;;;;;;;5.88;4.28;;;;;;;19.31;65.46;93552.78;5053152;28;20170;-58
2022/08/12 01:34:37;;;;;;;3.83;3.53;;;;;;;19.33;65.30;93549.34;5035623;28;20041;-58
2022/08/12 01:37:04;;;;;;;3.88;3.42;;;;;;;19.32;65.40;93536.69;5053201;28;20053;-58
2022/08/12 01:39:42;;;;;;;4.32;3.55;;;;;;;19.35;65.41;93546.72;5053202;28;20021;-58
2022/08/12 01:42:09;;;;;;;4.43;3.65;;;;;;;19.27;65.98;93546.19;5034347;28;20032;-58
2022/08/12 01:44:35;;;;;;;4.03;3.63;;;;;;;19.23;65.99;93535.44;5053250;28;20040;-58
2022/08/12 01:47:32;;;;;;;3.92;3.53;;;;;;;19.25;66.07;93538.38;5052750;28;20086;-58
2022/08/12 01:50:33;;;;;;;4.93;3.35;;;;;;;19.24;65.95;93542.50;5052876;28;20043;-58
2022/08/12 01:53:05;;;;;;;4.15;3.72;;;;;;;19.07;66.47;93536.50;5034876;28;20029;-58
2022/08/12 01:55:33;;;;;;;5.65;3.45;;;;;;;19.16;66.08;93541.28;5052666;28;20037;-58
2022/08/12 01:58:28;;;;;;;4.63;3.23;;;;;;;19.15;66.12;93543.34;5034840;28;20087;-58
2022/08/12 02:01:03;;;;;;;3.97;3.33;;;;;;;19.16;66.16;93541.28;5052940;28;20147;-57
2022/08/12 02:12:42;;;;;;;3.97;3.58;;;;;;;19.26;66.24;93528.66;5052447;28;20035;-59
2022/08/12 02:15:23;;;;;;;4.25;3.85;;;;;;;19.25;65.77;93534.84;5052480;28;20402;-61
2022/08/12 02:18:03;;;;;;;3.83;3.08;;;;;;;19.22;66.01;93525.59;5034518;28;20041;-61
2022/08/12 02:20:37;;;;;;;3.92;3.55;;;;;;;19.26;65.53;93527.91;5052758;28;20055;-59
2022/08/12 02:23:06;;;;;;;4.90;3.22;;;;;;;19.23;65.34;93529.84;5034819;28;20032;-59
2022/08/12 02:25:33;;;;;;;4.10;3.77;;;;;;;19.12;65.50;93530.56;5052136;28;20052;-60
2022/08/12 02:27:59;;;;;;;4.47;4.07;;;;;;;19.16;65.42;93530.81;5033809;28;20505;-60
2022/08/12 02:30:30;;;;;;;4.57;3.60;;;;;;;19.16;65.63;93521.69;5051848;28;20028;-60
2022/08/12 02:33:00;;;;;;;4.68;4.28;;;;;;;19.02;66.39;93524.31;5052131;28;20055;-60
2022/08/12 02:35:28;;;;;;;4.40;4.00;;;;;;;19.09;65.90;93526.16;5052238;28;20409;-60
2022/08/12 02:37:55;;;;;;;4.85;3.92;;;;;;;19.08;65.92;93530.28;5052344;28;20025;-60
2022/08/12 02:40:22;;;;;;;3.33;2.90;;;;;;;19.10;65.96;93532.50;5052129;28;20410;-60
2022/08/12 02:42:58;;;;;;;4.97;3.80;;;;;;;19.18;66.01;93533.75;5063202;28;20024;-58
2022/08/12 02:45:52;;;;;;;5.68;3.58;;;;;;;19.15;66.26;93534.94;5071863;28;20056;-57
2022/08/12 02:48:34;;;;;;;4.57;4.03;;;;;;;18.91;67.26;93533.38;5071528;28;20490;-58
2022/08/12 02:51:09;;;;;;;3.97;3.60;;;;;;;18.92;67.33;93535.59;5071521;28;20558;-57
2022/08/12 02:53:36;;;;;;;3.72;3.42;;;;;;;18.88;67.49;93540.91;5053881;28;20441;-57
2022/08/12 02:56:03;;;;;;;4.57;3.67;;;;;;;18.85;67.71;93530.94;5071573;28;20404;-57
2022/08/12 02:58:34;;;;;;;6.03;3.20;;;;;;;18.76;68.53;93536.59;5071762;28;20595;-62
2022/08/12 03:01:02;;;;;;;3.92;3.53;;;;;;;18.86;67.77;93537.97;5071331;28;20321;-57
2022/08/12 03:03:32;;;;;;;5.28;3.72;;;;;;;18.78;68.07;93537.47;5072004;28;20090;-59
2022/08/12 03:06:00;;;;;;;5.15;3.40;;;;;;;18.88;67.72;93540.91;5071309;28;20557;-60
2022/08/12 03:08:31;;;;;;;4.80;3.50;;;;;;;18.84;68.32;93534.34;5060017;28;20032;-60
2022/08/12 03:11:10;;;;;;;3.35;3.05;;;;;;;18.87;68.32;93542.25;5051271;28;20021;-60
2022/08/12 03:13:38;;;;;;;;;;;;;;;19.00;67.60;93545.81;5034282;28;20032;-59
2022/08/12 03:16:04;;;;;;;3.80;3.50;;;;;;;18.78;68.74;93548.66;5029989;28;19917;-59
2022/08/12 03:18:31;;;;;;;4.60;3.50;;;;;;;18.79;68.84;93546.59;5030312;28;20028;-59
2022/08/12 03:20:58;;;;;;;5.35;3.63;;;;;;;18.83;68.79;93549.66;5031549;28;20075;-59
2022/08/12 03:23:24;;;;;;;5.22;3.60;;;;;;;18.78;68.74;93545.13;5031124;28;20025;-59
2022/08/12 03:25:52;;;;;;;4.63;3.90;;;;;;;18.71;69.13;93546.78;5031395;28;20026;-59
2022/08/12 03:31:04;;;;;;;3.88;3.50;;;;;;;18.81;69.01;93549.53;5030941;28;20450;-57
2022/08/12 03:33:36;;;;;;;3.88;3.45;;;;;;;18.79;69.03;93546.59;5031288;28;20037;-60
2022/08/12 03:36:06;;;;;;;4.55;3.58;;;;;;;18.87;68.44;93542.25;5030771;28;20491;-60
2022/08/12 03:38:41;;;;;;;5.65;3.67;;;;;;;18.93;67.74;93544.69;5030867;28;20483;-60
2022/08/12 03:41:36;;;;;;;5.00;3.80;;;;;;;18.89;67.93;93545.19;5030737;28;20029;-60
2022/08/12 04:00:49;;;;;;;5.05;4.55;;;;;;;19.04;66.99;93540.47;5030798;28;20087;-61
2022/08/12 04:05:58;;;;;;;11.23;5.07;;;;;;;19.05;67.48;93545.50;5030740;28;20096;-61
2022/08/12 04:08:25;;;;;;;7.80;4.43;;;;;;;19.05;67.56;93545.50;5030569;28;20037;-59
2022/08/12 04:13:37;;;;;;;6.47;3.83;;;;;;;19.15;67.09;93551.72;5030189;28;20040;-58
2022/08/12 04:16:05;;;;;;;4.65;4.20;;;;;;;19.06;68.18;93546.22;5033079;28;20060;-57
2022/08/12 04:18:30;;;;;;;5.57;4.10;;;;;;;19.10;68.23;93561.19;5050143;28;20035;-56
2022/08/12 04:20:57;;;;;;;4.80;4.30;;;;;;;19.17;68.12;93560.25;5049261;28;20032;-58
2022/08/12 04:23:24;;;;;;;4.22;3.83;;;;;;;19.26;67.40;93553.84;5049774;28;20537;-59
2022/08/12 04:25:50;;;;;;;5.68;4.15;;;;;;;19.23;67.55;93557.84;5050566;28;20033;-59
2022/08/12 04:28:24;;;;;;;4.00;3.60;;;;;;;19.32;67.12;93557.03;5049912;28;20118;-59
2022/08/12 04:30:50;;;;;;;5.07;3.75;;;;;;;19.40;66.81;93551.97;5048587;28;20482;-58
2022/08/12 04:33:17;;;;;;;3.88;3.58;;;;;;;19.38;66.93;93557.41;5040918;28;20034;-58
2022/08/12 04:35:43;;;;;;;6.22;3.97;;;;;;;19.38;66.63;93559.50;5035574;28;20120;-58
2022/08/12 04:38:11;;;;;;;4.53;4.10;;;;;;;19.43;66.84;93561.94;5034550;28;20017;-58
2022/08/12 04:40:37;;;;;;;4.05;3.75;;;;;;;19.50;66.97;93566.59;5049845;28;20407;-58
2022/08/12 04:43:03;;;;;;;5.30;4.32;;;;;;;19.56;66.90;93560.63;5050134;28;20040;-58
2022/08/12 04:45:31;;;;;;;6.80;5.10;;;;;;;19.61;66.16;93562.38;5049878;28;20029;-59
2022/08/12 04:47:57;;;;;;;5.82;5.22;;;;;;;19.62;66.48;93563.84;5049664;28;20029;-59
2022/08/12 04:50:24;;;;;;;8.63;6.22;;;;;;;19.60;66.33;93555.28;5029881;28;20030;-60
2022/08/12 04:52:50;;;;;;;7.60;5.30;;;;;;;19.64;66.33;93567.47;5033089;28;20144;-58
2022/08/12 04:55:16;;;;;;;7.45;5.10;;;;;;;19.57;66.54;93562.84;5049340;28;20037;-57
2022/08/12 04:57:42;;;;;;;6.00;5.20;;;;;;;19.61;66.16;93557.50;5036275;28;20031;-57
2022/08/12 05:00:12;;;;;;;6.35;4.70;;;;;;;19.63;65.93;93565.28;5053744;28;20068;-57
2022/08/12 05:02:39;;;;;;;5.15;4.63;;;;;;;19.60;66.49;93556.03;5053696;28;20029;-58
2022/08/12 05:05:07;;;;;;;6.47;4.35;;;;;;;19.66;66.24;93559.19;5053864;28;20186;-59
2022/08/12 05:07:35;;;;;;;6.25;5.10;;;;;;;19.77;66.12;93551.44;5051392;28;20075;-59
2022/08/12 05:10:02;;;;;;;5.85;5.10;;;;;;;19.82;66.27;93558.72;5033956;28;20121;-58
2022/08/12 05:12:43;;;;;;;6.45;5.47;;;;;;;19.75;66.70;93565.31;5033380;28;20037;-58
2022/08/12 05:15:15;;;;;;;12.98;5.28;;;;;;;19.73;66.87;93559.59;5052890;28;20067;-58
2022/08/12 05:17:42;;;;;;;5.07;4.60;;;;;;;19.67;67.27;93559.94;5051903;28;20534;-58
2022/08/12 05:20:09;;;;;;;11.70;4.80;;;;;;;19.68;67.47;93559.31;5052725;28;20086;-58
2022/08/12 05:22:36;;;;;;;9.57;4.80;;;;;;;19.74;67.08;93566.66;5033626;28;20033;-58
2022/08/12 05:25:01;;;;;;;4.80;4.38;;;;;;;19.71;67.48;93565.78;5023735;28;20028;-58
2022/08/12 05:27:27;;;;;;;5.53;3.97;;;;;;;19.75;67.77;93562.50;5053156;28;20558;-58
2022/08/12 05:29:52;;;;;;;4.07;3.67;;;;;;;19.90;66.18;93559.97;5053434;28;20086;-58
2022/08/12 05:32:19;;;;;;;4.10;3.40;;;;;;;19.95;65.62;93558.88;5052190;28;20025;-58
2022/08/12 05:34:52;;;;;;;17.27;4.70;;;;;;;19.89;65.97;93540.97;5034946;28;20120;-58
2022/08/12 05:37:18;;;;;;;4.13;3.67;;;;;;;20.08;65.38;93557.53;5049914;28;20021;-59
2022/08/12 05:39:44;;;;;;;3.72;3.17;;;;;;;20.16;64.41;93564.34;5052544;28;20024;-56
2022/08/12 05:42:10;;;;;;;3.15;2.78;;;;;;;20.24;63.02;93570.50;5052400;28;20104;-57
2022/08/12 05:44:35;;;;;;;5.50;2.85;;;;;;;20.33;62.31;93566.84;5052793;28;20553;-57
2022/08/12 05:47:01;;;;;;;4.30;3.65;;;;;;;20.42;63.33;93568.75;5043519;28;20028;-57
2022/08/12 05:49:28;;;;;;;5.32;3.45;;;;;;;20.36;63.04;93560.00;5052579;28;20021;-58
2022/08/12 05:51:54;;;;;;;4.50;4.10;;;;;;;20.35;63.44;93569.03;5052716;28;20114;-57
2022/08/12 05:54:20;;;;;;;6.97;4.82;;;;;;;20.42;63.29;93582.09;5052920;28;20025;-58
2022/08/12 05:56:46;;;;;;;6.35;4.35;;;;;;;20.39;64.14;93581.22;5052883;28;20032;-58
2022/08/12 05:59:12;;;;;;;6.70;4.20;;;;;;;20.38;63.30;93573.41;5052784;28;20459;-58
2022/08/12 06:01:39;;;;;;;7.60;4.40;;;;;;;20.51;62.54;93572.06;5046752;28;20100;-53
2022/08/12 06:04:04;;;;;;;4.70;3.70;;;;;;;20.49;61.79;93560.72;5057677;28;20058;-54
2022/08/12 06:06:40;;;;;;;4.45;4.03;;;;;;;20.64;61.26;93574.97;5038679;28;20053;-54
2022/08/12 06:09:08;;;;;;;5.53;3.90;;;;;;;20.64;62.05;93544.09;5047341;28;20033;-56
2022/08/12 06:11:34;;;;;;;4.82;4.20;;;;;;;20.89;62.24;93575.03;5030073;28;20438;-58
2022/08/12 06:14:00;;;;;;;7.75;4.20;;;;;;;21.05;61.87;93569.66;5039345;28;20043;-58
2022/08/12 06:16:31;;;;;;;3.75;3.35;;;;;;;21.13;61.09;93573.66;5049735;28;20064;-59
2022/08/12 06:18:57;;;;;;;4.00;3.60;;;;;;;21.25;60.80;93570.78;5049696;28;20035;-58
2022/08/12 06:21:22;;;;;;;4.55;4.13;;;;;;;21.23;60.09;93567.13;5049715;28;20020;-61
2022/08/12 06:23:49;;;;;;;4.60;3.30;;;;;;;21.29;60.76;93565.41;5049428;28;20047;-58
2022/08/12 06:26:17;;;;;;;4.60;3.20;;;;;;;21.42;58.70;93572.44;5047651;28;20044;-57
2022/08/12 06:28:44;;;;;;;3.45;3.15;;;;;;;21.43;58.16;93579.50;5048523;28;20108;-58
2022/08/12 06:31:15;;;;;;;4.15;3.00;;;;;;;21.49;58.89;93572.16;5042795;28;20098;-57
2022/08/12 06:33:43;;;;;;;4.90;3.28;;;;;;;21.50;58.70;93570.81;5037774;28;20044;-57
2022/08/12 06:36:12;;;;;;;4.15;2.92;;;;;;;21.49;57.98;93574.22;5047408;28;20036;-56
2022/08/12 06:38:39;;;;;;;5.82;2.90;;;;;;;21.57;57.78;93575.41;5048284;28;20024;-56
2022/08/12 06:43:51;;;;;;;14.20;3.30;;;;;;;21.73;56.20;93579.13;5045524;28;20777;-55
2022/08/12 06:46:18;;;;;;;3.90;3.10;;;;;;;21.78;55.71;93563.22;5043091;28;20032;-60
2022/08/12 06:48:43;;;;;;;9.57;3.35;;;;;;;22.04;55.32;93564.66;5041976;28;20067;-60
2022/08/12 06:51:09;;;;;;;13.70;4.20;;;;;;;22.34;55.45;93579.59;5046841;28;20513;-60
2022/08/12 06:53:35;;;;;;;3.60;2.80;;;;;;;22.51;55.71;93565.00;5048164;28;20124;-60
2022/08/12 06:56:01;;;;;;;9.23;3.00;;;;;;;22.76;54.12;93578.28;5047827;28;20111;-60
2022/08/12 06:58:27;;;;;;;5.32;2.60;;;;;;;22.80;51.53;93572.84;5045001;28;20116;-60
2022/08/12 07:00:54;;;;;;;2.95;2.70;;;;;;;22.88;52.32;93570.44;5044825;28;20032;-60
2022/08/12 07:03:26;;;;;;;2.67;2.35;;;;;;;22.87;52.32;93574.63;5048021;28;20063;-59
2022/08/12 07:05:52;;;;;;;2.97;2.67;;;;;;;22.93;52.48;93572.09;5047181;28;20021;-59
2022/08/12 07:08:18;;;;;;;2.90;2.45;;;;;;;22.98;52.03;93568.13;5040405;28;20037;-58
2022/08/12 07:10:52;;;;;;;2.53;2.30;;;;;;;23.04;50.64;93574.06;5047674;28;20433;-59
2022/08/12 07:13:18;;;;;;;12.30;3.00;;;;;;;22.95;49.27;93572.19;5047517;28;20033;-59
2022/08/12 07:15:44;;;;;;;2.30;1.88;;;;;;;22.94;48.86;93567.91;5047008;28;20029;-58
2022/08/12 07:18:15;;;;;;;2.28;2.08;;;;;;;22.83;48.22;93563.88;5047803;28;20009;-58
2022/08/12 07:20:43;;;;;;;3.25;1.95;;;;;;;22.85;49.18;93569.59;5043525;28;20068;-60
2022/08/12 07:23:11;;;;;;;4.10;2.00;;;;;;;22.87;49.72;93572.50;5048462;28;20025;-58
2022/08/12 07:25:38;;;;;;;3.80;1.95;;;;;;;22.85;49.13;93569.59;5025987;28;20468;-57
2022/08/12 07:28:15;;;;;;;18.48;3.88;;;;;;;22.74;48.84;93552.84;5040453;28;20033;-56
2022/08/12 07:30:43;;;;;;;3.15;2.13;;;;;;;22.90;48.36;93567.72;5047766;28;20025;-58
2022/08/12 07:33:09;;;;;;;2.65;2.15;;;;;;;22.98;49.39;93563.22;5048718;28;20560;-58
2022/08/12 07:35:44;;;;;;;2.20;1.65;;;;;;;23.08;48.81;93565.81;5049257;28;20029;-56
2022/08/12 07:38:38;;;;;;;2.13;2.00;;;;;;;23.29;47.75;93560.53;5049977;28;20028;-59
2022/08/12 07:41:10;;;;;;;1.80;1.70;;;;;;;23.52;47.42;93556.72;5047115;28;20037;-59
2022/08/12 07:43:42;;;;;;;4.28;1.92;;;;;;;23.84;46.06;93558.28;5046570;28;20029;-58
2022/08/12 07:46:11;;;;;;;2.65;2.45;;;;;;;24.28;45.85;93553.94;5046622;28;20025;-59
2022/08/12 07:48:47;;;;;;;5.07;2.05;;;;;;;24.83;45.02;93554.28;5046174;28;20021;-58
2022/08/12 07:51:13;;;;;;;2.17;1.80;;;;;;;25.33;42.57;93550.75;5045257;28;20039;-57
2022/08/12 07:53:39;;;;;;;3.88;1.60;;;;;;;25.64;42.95;93552.00;5047336;28;20025;-57
2022/08/12 07:56:06;;;;;;;2.20;2.00;;;;;;;25.66;41.18;93544.31;5048311;28;20033;-57
2022/08/12 07:58:32;;;;;;;1.92;1.73;;;;;;;26.24;41.88;93548.69;5048938;28;20056;-57
2022/08/12 08:00:59;;;;;;;3.60;2.13;;;;;;;26.79;39.64;93545.78;5049672;28;20024;-56
2022/08/12 08:03:26;;;;;;;1.88;1.75;;;;;;;27.13;38.08;93546.25;5050255;28;20029;-57
2022/08/12 08:05:52;;;;;;;1.92;1.83;;;;;;;27.08;39.13;93538.97;5050235;28;20036;-58
2022/08/12 08:08:20;;;;;;;2.30;2.10;;;;;;;26.89;40.00;93535.53;5050406;28;20029;-57
2022/08/12 08:10:47;;;;;;;2.25;2.05;;;;;;;27.07;38.53;93532.59;5050118;28;20117;-52
2022/08/12 08:13:13;;;;;;;2.60;2.00;;;;;;;27.15;37.62;93534.97;5049707;28;20029;-58
2022/08/12 08:15:39;;;;;;;1.60;1.50;;;;;;;27.36;37.18;93529.34;5049418;28;20104;-57
2022/08/12 08:18:08;;;;;;;2.50;2.17;;;;;;;27.55;38.08;93517.19;5026378;28;20497;-59
2022/08/12 08:20:40;;;;;;;5.97;1.73;;;;;;;28.25;36.64;93521.53;5030092;28;20033;-54
2022/08/12 08:23:11;;;;;;;2.75;2.20;;;;;;;29.04;36.10;93518.06;5029705;28;20555;-56
2022/08/12 08:25:37;;;;;;;2.03;1.83;;;;;;;29.57;33.51;93518.03;5029608;28;20056;-56
2022/08/12 08:28:08;;;;;;;3.83;1.80;;;;;;;30.68;33.04;93517.69;5029521;28;20053;-56
2022/08/12 08:30:37;;;;;;;5.07;2.08;;;;;;;30.92;30.62;93517.47;5029688;28;20025;-59
2022/08/12 08:33:02;;;;;;;3.65;1.90;;;;;;;30.64;30.96;93511.91;5029776;28;20026;-59
2022/08/12 08:35:28;;;;;;;3.60;1.67;;;;;;;30.80;31.14;93517.22;5029959;28;20033;-59
2022/08/12 08:38:06;;;;;;;2.13;1.90;;;;;;;30.66;31.76;93509.84;5030025;28;20517;-59
2022/08/12 08:43:19;;;;;;;3.72;2.15;;;;;;;31.40;30.28;93506.97;5045907;28;20048;-58
2022/08/12 08:45:47;;;;;;;5.18;1.80;;;;;;;31.51;29.44;93505.03;5049607;28;20025;-58
2022/08/12 08:48:15;;;;;;;3.70;1.80;;;;;;;31.93;29.44;93506.41;5049677;28;20028;-58
2022/08/12 08:50:41;;;;;;;1.52;1.42;;;;;;;32.34;29.62;93509.88;5048974;28;20119;-59
2022/08/12 08:53:10;;;;;;;1.80;1.50;;;;;;;32.26;29.21;93510.50;5049459;28;20116;-59
2022/08/12 08:55:39;;;;;;;2.00;1.73;;;;;;;31.98;29.82;93498.66;5049310;28;20518;-60
2022/08/12 08:58:08;;;;;;;2.45;2.25;;;;;;;31.52;30.63;93503.59;5049660;28;20417;-59
2022/08/12 09:00:37;;;;;;;2.30;2.00;;;;;;;30.28;31.26;93508.25;5049268;28;20053;-59
2022/08/12 09:03:03;;;;;;;2.58;1.85;;;;;;;30.09;33.34;93504.31;5049261;28;20107;-59
2022/08/12 09:05:28;;;;;;;2.47;1.90;;;;;;;29.86;33.09;93494.56;5049647;28;20035;-59
2022/08/12 09:07:55;;;;;;;3.40;2.15;;;;;;;29.30;33.20;93506.66;5049625;28;20104;-59
2022/08/12 09:10:20;;;;;;;2.20;2.00;;;;;;;29.29;33.56;93500.25;5049257;28;20513;-58
2022/08/12 09:15:31;;;;;;;4.22;2.47;;;;;;;28.92;34.58;93506.34;5014447;28;20032;-57
2022/08/12 09:17:58;;;;;;;48.42;5.30;;;;;;;28.87;35.04;93499.84;5044428;28;20426;-59
2022/08/12 09:20:28;;;;;;;10.10;2.13;;;;;;;28.91;34.16;93499.94;5049112;28;20021;-59
2022/08/12 09:22:57;;;;;;;3.33;1.88;;;;;;;29.65;33.90;93495.44;5049409;28;20021;-59
2022/08/12 09:25:27;;;;;;;2.85;1.75;;;;;;;29.54;33.09;93502.28;5049411;28;20021;-59
2022/08/12 09:27:55;;;;;;;1.88;1.77;;;;;;;29.39;33.96;93506.19;5049011;28;20021;-58
2022/08/12 09:30:24;;;;;;;4.50;1.70;;;;;;;29.10;34.28;93512.53;5049397;28;20029;-58
2022/08/12 09:32:51;;;;;;;2.75;1.63;;;;;;;28.79;33.55;93507.44;5049495;28;20029;-59
2022/08/12 09:35:23;;;;;;;3.75;2.40;;;;;;;28.75;34.57;93510.88;5049282;28;20037;-59
2022/08/12 09:37:56;;;;;;;3.33;2.83;;;;;;;28.91;34.53;93504.94;5050509;28;20317;-57
2022/08/12 09:40:28;;;;;;;2.33;2.10;;;;;;;29.08;34.50;93509.63;5052875;28;20021;-58
2022/08/12 09:45:40;;;;;;;2.03;1.83;;;;;;;29.00;35.25;93501.59;5052898;28;20036;-58
2022/08/12 09:48:07;;;;;;;2.15;1.95;;;;;;;29.01;34.89;93505.91;5052372;28;20021;-58
2022/08/12 09:50:34;;;;;;;2.80;2.10;;;;;;;28.75;35.23;93508.06;5052635;28;20103;-58
2022/08/12 09:53:23;;;;;;;2.30;2.10;;;;;;;28.47;35.95;93512.91;5052478;28;20089;-58
2022/08/12 09:55:53;;;;;;;3.42;1.85;;;;;;;28.16;35.05;93505.63;5052832;28;20137;-52
2022/08/12 09:58:40;;;;;;;4.22;2.20;;;;;;;27.87;36.46;93505.41;5052649;28;20052;-56
2022/08/12 10:01:06;;;;;;;3.53;2.33;;;;;;;27.65;36.21;93502.63;5052345;28;20017;-53
2022/08/12 10:03:33;;;;;;;2.00;1.90;;;;;;;27.53;36.81;93500.13;5052247;28;20021;-49
2022/08/12 10:06:00;;;;;;;3.00;2.70;;;;;;;27.51;37.35;93496.50;5052536;28;20025;-51
2022/08/12 10:08:58;;;;;;;3.20;2.75;;;;;;;27.55;38.15;93505.13;5052118;28;20108;-49
2022/08/12 10:14:08;;;;;;;3.10;2.80;;;;;;;27.67;37.06;93497.00;5052510;28;20044;-49
2022/08/12 10:16:36;;;;;;;4.97;2.75;;;;;;;27.69;37.25;93497.06;5051725;28;20053;-50
2022/08/12 10:19:04;;;;;;;4.20;3.00;;;;;;;27.73;37.36;93492.25;5052300;28;20016;-49
2022/08/12 10:21:38;;;;;;;2.80;2.50;;;;;;;27.69;37.26;93491.41;5051928;28;20082;-51
2022/08/12 10:24:11;;;;;;;2.35;2.15;;;;;;;27.62;38.05;93496.16;5051908;28;20068;-49
2022/08/12 10:29:38;;;;;;;6.97;2.75;;;;;;;27.42;38.02;93481.31;5020716;28;20047;-50
2022/08/12 10:32:16;;;;;;;8.27;2.80;;;;;;;27.36;37.44;93480.41;5051863;28;20021;-50
2022/08/12 10:34:42;;;;;;;4.10;3.33;;;;;;;27.31;38.22;93476.69;5051948;28;20100;-50
2022/08/12 10:37:08;;;;;;;3.30;3.00;;;;;;;27.29;38.08;93476.63;5051613;28;20566;-50
2022/08/12 10:39:36;;;;;;;3.22;2.97;;;;;;;27.28;37.13;93478.03;5051517;28;20096;-53
2022/08/12 10:44:49;;;;;;;3.30;3.00;;;;;;;27.11;38.40;93466.81;5051846;28;20521;-52
2022/08/12 10:47:15;;;;;;;3.03;2.72;;;;;;;26.93;38.98;93447.81;5051340;28;20025;-57
2022/08/12 10:49:43;;;;;;;3.30;3.00;;;;;;;27.05;39.89;93468.06;5050936;28;20029;-57
2022/08/12 10:52:09;;;;;;;3.90;2.70;;;;;;;27.02;37.50;93458.06;5050882;28;20032;-56
2022/08/12 10:54:34;;;;;;;4.10;2.60;;;;;;;27.69;37.30;93471.53;5051053;28;20418;-53
2022/08/12 10:57:00;;;;;;;2.33;1.90;;;;;;;28.59;36.45;93469.97;5051517;28;20476;-50
2022/08/12 10:59:28;;;;;;;2.08;1.98;;;;;;;29.52;34.82;93461.72;5051157;28;20025;-50
2022/08/12 11:01:55;;;;;;;3.55;2.05;;;;;;;30.02;31.02;93439.38;5051309;28;20056;-59
2022/08/12 11:04:21;;;;;;;2.80;2.00;;;;;;;30.47;31.90;93464.56;5034793;28;20020;-57
2022/08/12 11:06:46;;;;;;;2.25;2.05;;;;;;;30.63;30.86;93457.03;5051251;28;20425;-57
2022/08/12 11:09:18;;;;;;;1.67;1.58;;;;;;;30.45;30.36;93461.66;5051206;28;20048;-60
2022/08/12 11:11:47;;;;;;;1.85;1.73;;;;;;;30.60;30.81;93447.00;5051265;28;20096;-58
2022/08/12 11:14:18;;;;;;;2.15;1.88;;;;;;;30.62;31.30;93454.88;5051154;28;20025;-57
2022/08/12 11:16:44;;;;;;;2.33;2.13;;;;;;;30.83;30.39;93441.72;5050835;28;20044;-57
2022/08/12 11:19:11;;;;;;;2.78;2.30;;;;;;;31.19;30.23;93443.09;5050874;28;20105;-58
2022/08/12 11:21:36;;;;;;;2.45;2.25;;;;;;;31.24;28.71;93436.06;5051066;28;20032;-59
2022/08/12 11:24:02;;;;;;;2.47;2.28;;;;;;;31.45;29.28;93427.88;5051011;28;20446;-52
2022/08/12 11:26:28;;;;;;;2.75;2.20;;;;;;;31.60;28.42;93438.09;5051005;28;20512;-58
2022/08/12 11:28:53;;;;;;;5.20;2.55;;;;;;;31.41;28.24;93431.38;5050554;28;20029;-59
2022/08/12 11:31:19;;;;;;;2.28;1.80;;;;;;;30.93;28.38;93428.41;5050854;28;20115;-57
2022/08/12 11:33:44;;;;;;;3.25;2.28;;;;;;;30.37;30.30;93436.56;5050824;28;20106;-58
2022/08/12 11:36:12;;;;;;;2.10;1.90;;;;;;;30.26;30.27;93432.03;5050812;28;20021;-57
2022/08/12 11:38:38;;;;;;;2.50;2.00;;;;;;;30.44;28.88;93426.75;5050915;28;20052;-58
2022/08/12 11:41:06;;;;;;;2.28;2.10;;;;;;;30.64;28.48;93432.13;5050327;28;20522;-58
2022/08/12 11:43:32;;;;;;;3.75;2.35;;;;;;;30.55;29.46;93421.97;5050159;28;20406;-55
2022/08/12 11:45:58;;;;;;;1.55;1.45;;;;;;;30.54;30.10;93417.66;5050673;28;20025;-54
2022/08/12 11:48:24;;;;;;;2.05;1.85;;;;;;;30.51;28.87;93414.06;5049937;28;20096;-57
2022/08/12 11:50:50;;;;;;;3.20;2.25;;;;;;;30.61;29.45;93422.81;5050188;28;20624;-58
2022/08/12 11:53:15;;;;;;;2.58;2.38;;;;;;;30.45;28.06;93416.78;5049318;28;20078;-59
2022/08/12 11:55:41;;;;;;;4.25;2.22;;;;;;;29.92;28.67;93420.66;5049108;28;20028;-58
2022/08/12 11:58:06;;;;;;;1.83;1.73;;;;;;;29.34;29.57;93421.44;5037004;28;20018;-56
2022/08/12 12:00:31;;;;;;;2.20;2.00;;;;;;;28.86;30.21;93423.78;5041868;28;20029;-58
2022/08/12 12:02:57;;;;;;;4.72;1.90;;;;;;;28.55;30.69;93419.38;5048924;28;20098;-56
2022/08/12 12:05:22;;;;;;;2.88;2.00;;;;;;;28.26;31.51;93412.22;5049783;28;20098;-56
2022/08/12 12:07:48;;;;;;;2.08;1.83;;;;;;;28.16;32.79;93414.06;5049908;28;20564;-54
2022/08/12 12:10:19;;;;;;;2.47;2.28;;;;;;;28.06;33.17;93422.28;5049873;28;20052;-55
2022/08/12 12:12:45;;;;;;;2.55;2.03;;;;;;;27.88;32.10;93416.06;5048851;28;20033;-56
2022/08/12 12:15:11;;;;;;;3.90;1.98;;;;;;;27.69;32.66;93415.53;5048738;28;20501;-57
2022/08/12 12:17:38;;;;;;;13.25;2.40;;;;;;;27.53;34.50;93409.34;5049614;28;20406;-57
2022/08/12 12:20:09;;;;;;;2.10;1.90;;;;;;;27.50;33.88;93412.81;5040947;28;20033;-57
2022/08/12 12:22:39;;;;;;;2.90;1.85;;;;;;;27.43;34.60;93411.16;5049578;28;20024;-58
2022/08/12 12:25:06;;;;;;;2.45;2.08;;;;;;;27.34;34.89;93407.31;5049222;28;20115;-58
2022/08/12 12:27:44;;;;;;;9.00;2.67;;;;;;;27.19;36.53;93401.88;5046772;28;20025;-56
2022/08/12 12:30:10;;;;;;;2.40;2.20;;;;;;;27.02;35.99;93401.38;5034426;28;20418;-57
2022/08/12 12:32:35;;;;;;;2.13;1.92;;;;;;;27.05;36.39;93402.13;5030068;28;20124;-57
2022/08/12 12:35:01;;;;;;;2.58;2.20;;;;;;;26.95;36.46;93405.38;5039399;28;20028;-57
2022/08/12 12:37:29;;;;;;;5.53;2.20;;;;;;;26.81;36.52;93395.72;5047852;28;20025;-58
2022/08/12 12:39:56;;;;;;;2.92;2.40;;;;;;;26.75;36.62;93401.88;5048601;28;20469;-57
2022/08/12 12:42:22;;;;;;;3.25;1.98;;;;;;;27.20;38.64;93384.19;5057710;28;20044;-57
2022/08/12 12:44:48;;;;;;;2.38;1.98;;;;;;;27.71;35.29;93378.72;5069522;28;20064;-58
2022/08/12 12:47:15;;;;;;;2.58;1.77;;;;;;;28.21;34.76;93387.22;5069483;28;20210;-58
2022/08/12 12:49:41;;;;;;;3.53;2.20;;;;;;;28.77;35.41;93365.28;5069773;28;20032;-55
2022/08/12 12:52:09;;;;;;;2.97;1.80;;;;;;;29.05;31.86;93371.66;5069844;28;20417;-58
2022/08/12 12:54:37;;;;;;;1.58;1.48;;;;;;;28.93;31.69;93366.44;5069552;28;20563;-58
2022/08/12 12:57:03;;;;;;;4.05;2.05;;;;;;;28.77;31.54;93365.28;5064023;28;20032;-59
2022/08/12 12:59:30;;;;;;;1.52;1.42;;;;;;;28.58;31.66;93381.16;5049617;28;20021;-57
2022/08/12 13:01:58;;;;;;;2.97;1.90;;;;;;;28.56;32.23;93364.03;5049387;28;20518;-57
2022/08/12 13:04:23;;;;;;;3.67;1.80;;;;;;;28.75;30.48;93368.09;5049637;28;20461;-57
2022/08/12 13:06:51;;;;;;;3.78;1.90;;;;;;;28.95;31.31;93366.47;5049632;28;20029;-56
2022/08/12 13:09:19;;;;;;;2.03;1.52;;;;;;;29.05;30.89;93363.88;5049484;28;20083;-55
2022/08/12 13:11:45;;;;;;;3.53;1.58;;;;;;;28.87;30.33;93360.56;5049354;28;20086;-59
2022/08/12 13:14:12;;;;;;;2.65;1.98;;;;;;;28.49;31.54;93356.75;5052667;28;20029;-58
2022/08/12 13:16:39;;;;;;;14.45;3.22;;;;;;;28.35;32.57;93371.28;5051117;28;20079;-57
2022/08/12 13:19:04;;;;;;;5.50;2.35;;;;;;;28.18;33.10;93368.69;5043945;28;20052;-57
2022/08/12 13:21:31;;;;;;;3.33;2.40;;;;;;;27.99;33.54;93363.91;5044206;28;20488;-57
2022/08/12 13:23:57;;;;;;;5.65;2.20;;;;;;;27.93;33.35;93364.44;5048959;28;20033;-58